sensor_id;sensor_type;location;lat;lon;timestamp;pressure;altitude;pressure_sealevel;temperature;humidity
59106;BME280;44891;50.204;8.132;2022-11-04T00:03:09;97017.66;;;10.62;98.23
59106;BME280;44891;50.204;8.132;2022-11-04T00:07:11;97020.31;;;10.57;98.05
59106;BME280;44891;50.204;8.132;2022-11-04T00:11:27;97029.25;;;10.51;97.21
59106;BME280;44891;50.204;8.132;2022-11-04T00:15:46;97030.56;;;10.49;98.05
59106;BME280;44891;50.204;8.132;2022-11-04T00:20:07;97041.06;;;10.49;98.06
59106;BME280;44891;50.204;8.132;2022-11-04T00:24:27;97042.13;;;10.53;98.17
59106;BME280;44891;50.204;8.132;2022-11-04T00:28:46;97039.50;;;10.53;97.54
59106;BME280;44891;50.204;8.132;2022-11-04T00:32:52;97053.16;;;10.45;100.00
59106;BME280;44891;50.204;8.132;2022-11-04T00:37:13;97064.16;;;10.42;100.00
59106;BME280;44891;50.204;8.132;2022-11-04T00:41:15;97073.63;;;10.43;100.00
59106;BME280;44891;50.204;8.132;2022-11-04T00:45:29;97070.19;;;10.42;100.00
59106;BME280;44891;50.204;8.132;2022-11-04T00:49:31;97066.78;;;10.42;100.00
59106;BME280;44891;50.204;8.132;2022-11-04T00:53:34;97065.22;;;10.41;100.00
59106;BME280;44891;50.204;8.132;2022-11-04T00:57:36;97063.38;;;10.46;100.00
59106;BME280;44891;50.204;8.132;2022-11-04T01:01:38;97068.91;;;10.40;100.00
59106;BME280;44891;50.204;8.132;2022-11-04T01:05:40;97085.72;;;10.44;100.00
59106;BME280;44891;50.204;8.132;2022-11-04T01:09:43;97087.00;;;10.41;100.00
59106;BME280;44891;50.204;8.132;2022-11-04T01:13:45;97081.50;;;10.43;100.00
59106;BME280;44891;50.204;8.132;2022-11-04T01:17:50;97084.13;;;10.43;100.00
59106;BME280;44891;50.204;8.132;2022-11-04T01:21:52;97110.38;;;10.38;99.75
59106;BME280;44891;50.204;8.132;2022-11-04T01:25:55;97135.03;;;10.26;98.65
59106;BME280;44891;50.204;8.132;2022-11-04T01:29:57;97107.97;;;10.21;98.89
59106;BME280;44891;50.204;8.132;2022-11-04T01:33:59;97119.28;;;10.11;98.50
59106;BME280;44891;50.204;8.132;2022-11-04T01:38:00;97122.94;;;10.05;96.22
59106;BME280;44891;50.204;8.132;2022-11-04T01:42:04;97121.34;;;9.94;95.73
59106;BME280;44891;50.204;8.132;2022-11-04T01:46:07;97114.00;;;9.96;95.48
59106;BME280;44891;50.204;8.132;2022-11-04T01:50:10;97109.00;;;9.94;95.28
59106;BME280;44891;50.204;8.132;2022-11-04T01:54:13;97107.94;;;9.90;94.43
59106;BME280;44891;50.204;8.132;2022-11-04T01:58:17;97112.97;;;9.92;93.75
59106;BME280;44891;50.204;8.132;2022-11-04T02:02:21;97106.66;;;9.88;93.49
59106;BME280;44891;50.204;8.132;2022-11-04T02:06:23;97101.66;;;9.81;93.25
59106;BME280;44891;50.204;8.132;2022-11-04T02:10:25;97096.69;;;9.79;93.34
59106;BME280;44891;50.204;8.132;2022-11-04T02:14:29;97101.91;;;9.79;93.53
59106;BME280;44891;50.204;8.132;2022-11-04T02:18:47;97108.69;;;9.70;93.11
59106;BME280;44891;50.204;8.132;2022-11-04T02:27:24;97118.41;;;9.70;92.63
59106;BME280;44891;50.204;8.132;2022-11-04T02:31:31;97120.25;;;9.69;93.71
59106;BME280;44891;50.204;8.132;2022-11-04T02:35:39;97122.56;;;9.56;93.29
59106;BME280;44891;50.204;8.132;2022-11-04T02:39:47;97130.94;;;9.47;95.37
59106;BME280;44891;50.204;8.132;2022-11-04T02:43:53;97132.22;;;9.40;95.68
59106;BME280;44891;50.204;8.132;2022-11-04T02:48:00;97147.91;;;9.35;95.85
59106;BME280;44891;50.204;8.132;2022-11-04T02:52:04;97145.25;;;9.30;93.64
59106;BME280;44891;50.204;8.132;2022-11-04T02:56:07;97154.41;;;9.22;94.20
59106;BME280;44891;50.204;8.132;2022-11-04T03:00:12;97150.50;;;9.30;93.40
59106;BME280;44891;50.204;8.132;2022-11-04T03:04:16;97159.94;;;9.25;92.12
59106;BME280;44891;50.204;8.132;2022-11-04T03:08:20;97156.53;;;9.30;92.54
59106;BME280;44891;50.204;8.132;2022-11-04T03:12:24;97162.00;;;9.18;92.44
59106;BME280;44891;50.204;8.132;2022-11-04T03:16:29;97147.31;;;9.17;91.42
59106;BME280;44891;50.204;8.132;2022-11-04T03:20:35;97150.69;;;9.13;91.01
59106;BME280;44891;50.204;8.132;2022-11-04T03:24:39;97152.00;;;9.15;89.98
59106;BME280;44891;50.204;8.132;2022-11-04T03:28:42;97156.25;;;9.21;89.77
59106;BME280;44891;50.204;8.132;2022-11-04T03:32:49;97156.97;;;9.07;91.46
59106;BME280;44891;50.204;8.132;2022-11-04T03:36:57;97158.78;;;9.06;90.85
59106;BME280;44891;50.204;8.132;2022-11-04T03:40:59;97168.59;;;8.84;93.03
59106;BME280;44891;50.204;8.132;2022-11-04T03:45:03;97155.44;;;8.74;93.73
59106;BME280;44891;50.204;8.132;2022-11-04T03:49:05;97165.63;;;8.70;93.21
59106;BME280;44891;50.204;8.132;2022-11-04T03:53:09;97177.44;;;8.73;92.49
59106;BME280;44891;50.204;8.132;2022-11-04T03:57:17;97182.50;;;8.52;93.55
59106;BME280;44891;50.204;8.132;2022-11-04T04:01:24;97188.06;;;8.61;92.85
59106;BME280;44891;50.204;8.132;2022-11-04T04:05:29;97184.72;;;8.65;92.50
59106;BME280;44891;50.204;8.132;2022-11-04T04:09:34;97204.50;;;8.56;91.95
59106;BME280;44891;50.204;8.132;2022-11-04T04:13:40;97217.13;;;8.59;92.85
59106;BME280;44891;50.204;8.132;2022-11-04T04:17:44;97209.53;;;8.63;92.44
59106;BME280;44891;50.204;8.132;2022-11-04T04:21:51;97217.19;;;8.69;92.94
59106;BME280;44891;50.204;8.132;2022-11-04T04:25:58;97206.44;;;8.71;93.36
59106;BME280;44891;50.204;8.132;2022-11-04T04:30:18;97198.03;;;8.64;94.43
59106;BME280;44891;50.204;8.132;2022-11-04T04:34:21;97195.41;;;8.59;96.19
59106;BME280;44891;50.204;8.132;2022-11-04T04:38:24;97191.63;;;8.50;97.42
59106;BME280;44891;50.204;8.132;2022-11-04T04:42:45;97182.50;;;8.52;96.85
59106;BME280;44891;50.204;8.132;2022-11-04T04:47:16;97179.97;;;8.62;95.67
59106;BME280;44891;50.204;8.132;2022-11-04T04:51:20;97184.09;;;8.53;94.64
59106;BME280;44891;50.204;8.132;2022-11-04T04:55:22;97194.97;;;8.40;96.16
59106;BME280;44891;50.204;8.132;2022-11-04T04:59:25;97190.91;;;8.54;96.27
59106;BME280;44891;50.204;8.132;2022-11-04T05:03:27;97194.25;;;8.50;96.75
59106;BME280;44891;50.204;8.132;2022-11-04T05:07:29;97184.50;;;8.40;97.63
59106;BME280;44891;50.204;8.132;2022-11-04T05:11:31;97184.84;;;8.49;98.56
59106;BME280;44891;50.204;8.132;2022-11-04T05:15:34;97177.25;;;8.47;97.71
59106;BME280;44891;50.204;8.132;2022-11-04T05:19:36;97186.06;;;8.41;98.11
59106;BME280;44891;50.204;8.132;2022-11-04T05:23:38;97185.28;;;8.40;98.93
59106;BME280;44891;50.204;8.132;2022-11-04T05:27:40;97180.38;;;8.49;98.83
59106;BME280;44891;50.204;8.132;2022-11-04T05:31:43;97190.31;;;8.47;99.54
59106;BME280;44891;50.204;8.132;2022-11-04T05:35:45;97164.94;;;8.48;98.61
59106;BME280;44891;50.204;8.132;2022-11-04T05:39:47;97178.88;;;8.26;100.00
59106;BME280;44891;50.204;8.132;2022-11-04T05:43:49;97187.03;;;8.35;98.71
59106;BME280;44891;50.204;8.132;2022-11-04T05:47:57;97181.59;;;8.36;96.87
59106;BME280;44891;50.204;8.132;2022-11-04T05:51:59;97194.66;;;8.36;96.91
59106;BME280;44891;50.204;8.132;2022-11-04T05:56:01;97195.81;;;8.46;96.15
59106;BME280;44891;50.204;8.132;2022-11-04T06:00:03;97177.94;;;8.37;97.39
59106;BME280;44891;50.204;8.132;2022-11-04T06:04:09;97178.28;;;8.46;96.01
59106;BME280;44891;50.204;8.132;2022-11-04T06:08:13;97175.69;;;8.51;95.16
59106;BME280;44891;50.204;8.132;2022-11-04T06:12:15;97172.84;;;8.53;94.43
59106;BME280;44891;50.204;8.132;2022-11-04T06:16:17;97179.66;;;8.54;94.25
59106;BME280;44891;50.204;8.132;2022-11-04T06:20:20;97174.63;;;8.47;95.23
59106;BME280;44891;50.204;8.132;2022-11-04T06:24:22;97175.56;;;8.36;95.83
59106;BME280;44891;50.204;8.132;2022-11-04T06:28:24;97174.91;;;8.24;96.36
59106;BME280;44891;50.204;8.132;2022-11-04T06:32:26;97169.88;;;8.17;96.60
59106;BME280;44891;50.204;8.132;2022-11-04T06:36:29;97196.34;;;8.21;96.23
59106;BME280;44891;50.204;8.132;2022-11-04T06:40:31;97162.47;;;7.82;96.09
59106;BME280;44891;50.204;8.132;2022-11-04T06:44:33;97217.13;;;8.10;96.36
59106;BME280;44891;50.204;8.132;2022-11-04T06:48:35;97223.16;;;8.11;96.18
59106;BME280;44891;50.204;8.132;2022-11-04T06:52:38;97218.69;;;8.06;96.35
59106;BME280;44891;50.204;8.132;2022-11-04T06:56:40;97215.03;;;8.07;97.59
59106;BME280;44891;50.204;8.132;2022-11-04T07:00:42;97222.38;;;8.10;96.69
59106;BME280;44891;50.204;8.132;2022-11-04T07:04:45;97222.97;;;8.17;96.54
59106;BME280;44891;50.204;8.132;2022-11-04T07:08:48;97229.97;;;8.12;96.83
59106;BME280;44891;50.204;8.132;2022-11-04T07:12:50;97242.81;;;8.13;97.55
59106;BME280;44891;50.204;8.132;2022-11-04T07:16:54;97246.66;;;8.06;98.49
59106;BME280;44891;50.204;8.132;2022-11-04T07:20:56;97262.25;;;8.23;98.54
59106;BME280;44891;50.204;8.132;2022-11-04T07:24:59;97275.75;;;8.36;97.55
59106;BME280;44891;50.204;8.132;2022-11-04T07:29:01;97273.38;;;8.35;98.26
59106;BME280;44891;50.204;8.132;2022-11-04T07:33:06;97279.94;;;8.37;98.79
59106;BME280;44891;50.204;8.132;2022-11-04T07:37:08;97271.72;;;8.51;97.93
59106;BME280;44891;50.204;8.132;2022-11-04T07:41:11;97274.16;;;8.62;96.81
59106;BME280;44891;50.204;8.132;2022-11-04T07:45:14;97272.19;;;8.75;96.42
59106;BME280;44891;50.204;8.132;2022-11-04T07:49:16;97269.66;;;8.85;96.68
59106;BME280;44891;50.204;8.132;2022-11-04T07:53:17;97272.56;;;8.88;97.27
59106;BME280;44891;50.204;8.132;2022-11-04T07:57:21;97280.69;;;8.87;97.60
59106;BME280;44891;50.204;8.132;2022-11-04T08:01:23;97281.31;;;8.99;97.31
59106;BME280;44891;50.204;8.132;2022-11-04T08:05:25;97284.75;;;9.05;97.00
59106;BME280;44891;50.204;8.132;2022-11-04T08:09:27;97276.63;;;9.06;98.22
59106;BME280;44891;50.204;8.132;2022-11-04T08:13:31;97264.53;;;9.00;99.80
59106;BME280;44891;50.204;8.132;2022-11-04T08:17:33;97240.06;;;8.84;99.63
59106;BME280;44891;50.204;8.132;2022-11-04T08:21:35;97288.75;;;9.17;98.94
59106;BME280;44891;50.204;8.132;2022-11-04T08:25:37;97281.22;;;9.26;97.12
59106;BME280;44891;50.204;8.132;2022-11-04T08:29:40;97271.53;;;9.26;99.04
59106;BME280;44891;50.204;8.132;2022-11-04T08:33:42;97279.22;;;9.38;98.87
59106;BME280;44891;50.204;8.132;2022-11-04T08:37:45;97271.88;;;9.40;99.03
59106;BME280;44891;50.204;8.132;2022-11-04T08:41:46;97269.75;;;9.37;97.20
59106;BME280;44891;50.204;8.132;2022-11-04T08:45:51;97272.97;;;9.44;97.09
59106;BME280;44891;50.204;8.132;2022-11-04T08:49:53;97275.59;;;9.44;97.99
59106;BME280;44891;50.204;8.132;2022-11-04T08:53:56;97272.97;;;9.49;97.97
59106;BME280;44891;50.204;8.132;2022-11-04T08:57:58;97268.28;;;9.57;97.22
59106;BME280;44891;50.204;8.132;2022-11-04T09:02:01;97278.03;;;9.61;97.90
59106;BME280;44891;50.204;8.132;2022-11-04T09:06:03;97270.69;;;9.63;98.12
59106;BME280;44891;50.204;8.132;2022-11-04T09:10:06;97262.06;;;9.68;98.23
59106;BME280;44891;50.204;8.132;2022-11-04T09:14:08;97265.25;;;9.80;97.25
59106;BME280;44891;50.204;8.132;2022-11-04T09:18:12;97279.16;;;9.80;96.42
59106;BME280;44891;50.204;8.132;2022-11-04T09:22:14;97275.00;;;9.85;96.30
59106;BME280;44891;50.204;8.132;2022-11-04T09:26:16;97277.66;;;10.00;97.09
59106;BME280;44891;50.204;8.132;2022-11-04T09:30:18;97270.59;;;10.00;94.55
59106;BME280;44891;50.204;8.132;2022-11-04T09:34:21;97280.31;;;10.05;94.52
59106;BME280;44891;50.204;8.132;2022-11-04T09:38:23;97287.41;;;10.04;93.97
59106;BME280;44891;50.204;8.132;2022-11-04T09:42:32;97286.09;;;10.07;93.13
59106;BME280;44891;50.204;8.132;2022-11-04T09:46:39;97286.19;;;10.32;92.43
59106;BME280;44891;50.204;8.132;2022-11-04T09:50:43;97289.44;;;10.70;90.04
59106;BME280;44891;50.204;8.132;2022-11-04T09:54:47;97291.00;;;10.71;91.08
59106;BME280;44891;50.204;8.132;2022-11-04T09:58:51;97288.88;;;10.68;88.47
59106;BME280;44891;50.204;8.132;2022-11-04T10:02:59;97285.22;;;10.84;88.48
59106;BME280;44891;50.204;8.132;2022-11-04T10:07:08;97284.44;;;10.84;88.24
59106;BME280;44891;50.204;8.132;2022-11-04T10:11:16;97293.63;;;10.76;87.84
59106;BME280;44891;50.204;8.132;2022-11-04T10:15:30;97293.38;;;10.83;87.22
59106;BME280;44891;50.204;8.132;2022-11-04T10:19:37;97298.63;;;11.03;87.12
59106;BME280;44891;50.204;8.132;2022-11-04T10:23:46;97293.63;;;10.92;86.84
59106;BME280;44891;50.204;8.132;2022-11-04T10:27:53;97292.31;;;11.25;85.86
59106;BME280;44891;50.204;8.132;2022-11-04T10:31:55;97291.72;;;11.53;83.32
59106;BME280;44891;50.204;8.132;2022-11-04T10:35:59;97289.81;;;11.74;81.66
59106;BME280;44891;50.204;8.132;2022-11-04T10:40:05;97291.41;;;11.90;79.53
59106;BME280;44891;50.204;8.132;2022-11-04T10:44:19;97299.03;;;11.82;79.63
59106;BME280;44891;50.204;8.132;2022-11-04T10:48:24;97297.22;;;11.62;80.61
59106;BME280;44891;50.204;8.132;2022-11-04T10:52:28;97289.13;;;11.38;81.18
59106;BME280;44891;50.204;8.132;2022-11-04T10:56:37;97295.72;;;11.30;81.77
59106;BME280;44891;50.204;8.132;2022-11-04T11:00:40;97294.94;;;11.04;81.43
59106;BME280;44891;50.204;8.132;2022-11-04T11:04:42;97289.44;;;11.06;83.38
59106;BME280;44891;50.204;8.132;2022-11-04T11:08:47;97286.81;;;11.16;82.34
59106;BME280;44891;50.204;8.132;2022-11-04T11:12:51;97280.97;;;11.34;82.33
59106;BME280;44891;50.204;8.132;2022-11-04T11:16:53;97285.72;;;11.27;81.80
59106;BME280;44891;50.204;8.132;2022-11-04T11:21:03;97284.38;;;11.45;82.33
59106;BME280;44891;50.204;8.132;2022-11-04T11:25:21;97277.28;;;11.40;81.42
59106;BME280;44891;50.204;8.132;2022-11-04T11:29:25;97275.16;;;11.48;82.20
59106;BME280;44891;50.204;8.132;2022-11-04T11:33:28;97283.53;;;11.70;81.18
59106;BME280;44891;50.204;8.132;2022-11-04T11:37:31;97288.03;;;11.54;77.87
59106;BME280;44891;50.204;8.132;2022-11-04T11:41:33;97285.28;;;12.00;77.63
59106;BME280;44891;50.204;8.132;2022-11-04T11:45:37;97275.25;;;13.78;68.42
59106;BME280;44891;50.204;8.132;2022-11-04T11:49:39;97274.78;;;14.19;66.31
59106;BME280;44891;50.204;8.132;2022-11-04T11:53:55;97272.81;;;14.05;67.29
59106;BME280;44891;50.204;8.132;2022-11-04T11:57:59;97272.84;;;18.20;54.19
59106;BME280;44891;50.204;8.132;2022-11-04T12:02:18;97264.81;;;21.59;45.14
59106;BME280;44891;50.204;8.132;2022-11-04T12:06:25;97260.63;;;19.32;49.82
59106;BME280;44891;50.204;8.132;2022-11-04T12:10:31;97258.94;;;20.24;48.47
59106;BME280;44891;50.204;8.132;2022-11-04T12:14:39;97270.88;;;17.46;52.81
59106;BME280;44891;50.204;8.132;2022-11-04T12:18:54;97276.16;;;15.05;60.60
59106;BME280;44891;50.204;8.132;2022-11-04T12:23:00;97283.69;;;13.80;64.78
59106;BME280;44891;50.204;8.132;2022-11-04T12:27:07;97282.81;;;13.07;69.01
59106;BME280;44891;50.204;8.132;2022-11-04T12:31:15;97275.84;;;13.17;69.23
59106;BME280;44891;50.204;8.132;2022-11-04T12:35:25;97284.88;;;13.69;66.95
59106;BME280;44891;50.204;8.132;2022-11-04T12:39:33;97280.19;;;13.84;65.49
59106;BME280;44891;50.204;8.132;2022-11-04T12:43:41;97277.69;;;13.74;66.23
59106;BME280;44891;50.204;8.132;2022-11-04T12:47:45;97270.88;;;13.44;67.90
59106;BME280;44891;50.204;8.132;2022-11-04T12:51:50;97274.88;;;14.70;65.22
59106;BME280;44891;50.204;8.132;2022-11-04T12:55:58;97250.59;;;24.07;40.28
59106;BME280;44891;50.204;8.132;2022-11-04T13:00:07;97253.13;;;24.00;38.39
59106;BME280;44891;50.204;8.132;2022-11-04T13:04:11;97254.78;;;27.47;33.35
59106;BME280;44891;50.204;8.132;2022-11-04T13:08:18;97257.00;;;28.33;30.26
59106;BME280;44891;50.204;8.132;2022-11-04T13:12:23;97261.81;;;28.83;29.19
59106;BME280;44891;50.204;8.132;2022-11-04T13:16:26;97261.03;;;27.54;31.35
59106;BME280;44891;50.204;8.132;2022-11-04T13:20:29;97271.69;;;28.43;29.74
59106;BME280;44891;50.204;8.132;2022-11-04T13:24:36;97280.72;;;28.76;28.94
59106;BME280;44891;50.204;8.132;2022-11-04T13:28:39;97284.22;;;27.66;30.80
59106;BME280;44891;50.204;8.132;2022-11-04T13:32:44;97285.03;;;26.32;31.70
59106;BME280;44891;50.204;8.132;2022-11-04T13:36:50;97292.63;;;23.55;35.95
59106;BME280;44891;50.204;8.132;2022-11-04T13:41:03;97305.66;;;18.07;47.04
59106;BME280;44891;50.204;8.132;2022-11-04T13:45:08;97314.06;;;16.07;53.07
59106;BME280;44891;50.204;8.132;2022-11-04T13:49:15;97319.38;;;15.33;56.38
59106;BME280;44891;50.204;8.132;2022-11-04T13:53:18;97311.22;;;14.97;58.04
59106;BME280;44891;50.204;8.132;2022-11-04T13:57:23;97325.56;;;14.10;62.06
59106;BME280;44891;50.204;8.132;2022-11-04T14:01:26;97326.69;;;14.28;61.28
59106;BME280;44891;50.204;8.132;2022-11-04T14:05:44;97319.59;;;14.24;61.16
59106;BME280;44891;50.204;8.132;2022-11-04T14:09:50;97327.50;;;13.81;63.32
59106;BME280;44891;50.204;8.132;2022-11-04T14:18:27;97348.56;;;13.28;64.55
59106;BME280;44891;50.204;8.132;2022-11-04T14:22:30;97346.09;;;13.02;64.86
59106;BME280;44891;50.204;8.132;2022-11-04T14:26:39;97320.25;;;12.65;67.60
59106;BME280;44891;50.204;8.132;2022-11-04T14:30:44;97358.94;;;12.75;65.45
59106;BME280;44891;50.204;8.132;2022-11-04T14:34:48;97367.38;;;12.67;66.27
59106;BME280;44891;50.204;8.132;2022-11-04T14:39:03;97363.03;;;12.91;68.29
59106;BME280;44891;50.204;8.132;2022-11-04T14:43:05;97373.13;;;12.79;69.75
59106;BME280;44891;50.204;8.132;2022-11-04T14:47:18;97369.94;;;12.28;71.68
59106;BME280;44891;50.204;8.132;2022-11-04T14:51:24;97380.28;;;12.04;73.39
59106;BME280;44891;50.204;8.132;2022-11-04T14:55:27;97381.09;;;11.79;75.56
59106;BME280;44891;50.204;8.132;2022-11-04T14:59:30;97389.25;;;11.62;76.17
59106;BME280;44891;50.204;8.132;2022-11-04T15:03:32;97398.75;;;11.58;76.56
59106;BME280;44891;50.204;8.132;2022-11-04T15:07:38;97405.56;;;11.49;76.65
59106;BME280;44891;50.204;8.132;2022-11-04T15:11:40;97418.19;;;11.26;77.56
59106;BME280;44891;50.204;8.132;2022-11-04T15:15:59;97417.16;;;11.37;77.22
59106;BME280;44891;50.204;8.132;2022-11-04T15:20:05;97422.94;;;11.29;77.04
59106;BME280;44891;50.204;8.132;2022-11-04T15:24:11;97424.47;;;11.15;77.88
59106;BME280;44891;50.204;8.132;2022-11-04T15:28:19;97427.66;;;11.17;78.33
59106;BME280;44891;50.204;8.132;2022-11-04T15:32:21;97390.03;;;10.86;78.55
59106;BME280;44891;50.204;8.132;2022-11-04T15:36:24;97432.91;;;11.17;79.00
59106;BME280;44891;50.204;8.132;2022-11-04T15:40:28;97432.88;;;11.22;79.88
59106;BME280;44891;50.204;8.132;2022-11-04T15:44:34;97449.19;;;11.19;78.89
59106;BME280;44891;50.204;8.132;2022-11-04T15:48:37;97454.16;;;11.05;80.35
59106;BME280;44891;50.204;8.132;2022-11-04T15:52:44;97465.69;;;10.99;80.05
59106;BME280;44891;50.204;8.132;2022-11-04T15:56:48;97472.81;;;11.04;81.54
59106;BME280;44891;50.204;8.132;2022-11-04T16:00:52;97472.81;;;11.09;83.67
59106;BME280;44891;50.204;8.132;2022-11-04T16:05:04;97469.88;;;10.85;84.83
59106;BME280;44891;50.204;8.132;2022-11-04T16:09:17;97474.06;;;10.86;84.96
59106;BME280;44891;50.204;8.132;2022-11-04T16:13:21;97482.19;;;10.79;85.69
59106;BME280;44891;50.204;8.132;2022-11-04T16:17:25;97481.16;;;10.85;87.12
59106;BME280;44891;50.204;8.132;2022-11-04T16:21:28;97481.16;;;10.85;86.98
59106;BME280;44891;50.204;8.132;2022-11-04T16:25:32;97478.44;;;10.60;86.51
59106;BME280;44891;50.204;8.132;2022-11-04T16:29:36;97493.31;;;10.44;86.95
59106;BME280;44891;50.204;8.132;2022-11-04T16:33:38;97496.22;;;10.48;87.25
59106;BME280;44891;50.204;8.132;2022-11-04T16:37:40;97514.56;;;10.43;87.61
59106;BME280;44891;50.204;8.132;2022-11-04T16:41:42;97516.88;;;10.02;90.09
59106;BME280;44891;50.204;8.132;2022-11-04T16:45:45;97526.41;;;10.13;89.29
59106;BME280;44891;50.204;8.132;2022-11-04T16:49:48;97519.81;;;10.05;89.36
59106;BME280;44891;50.204;8.132;2022-11-04T16:53:50;97532.78;;;9.90;91.02
59106;BME280;44891;50.204;8.132;2022-11-04T16:57:54;97535.75;;;9.99;90.78
59106;BME280;44891;50.204;8.132;2022-11-04T17:01:58;97552.75;;;9.91;91.98
59106;BME280;44891;50.204;8.132;2022-11-04T17:06:01;97547.16;;;9.82;93.11
59106;BME280;44891;50.204;8.132;2022-11-04T17:10:03;97554.53;;;9.86;91.25
59106;BME280;44891;50.204;8.132;2022-11-04T17:14:06;97550.34;;;9.85;91.97
59106;BME280;44891;50.204;8.132;2022-11-04T17:18:09;97555.78;;;9.78;92.46
59106;BME280;44891;50.204;8.132;2022-11-04T17:22:13;97561.34;;;9.87;90.53
59106;BME280;44891;50.204;8.132;2022-11-04T17:26:16;97563.19;;;9.86;90.99
59106;BME280;44891;50.204;8.132;2022-11-04T17:30:19;97568.09;;;9.77;92.63
59106;BME280;44891;50.204;8.132;2022-11-04T17:34:22;97571.47;;;9.73;93.60
59106;BME280;44891;50.204;8.132;2022-11-04T17:38:25;97574.88;;;9.73;94.89
59106;BME280;44891;50.204;8.132;2022-11-04T17:42:27;97564.78;;;9.60;94.91
59106;BME280;44891;50.204;8.132;2022-11-04T17:46:46;97579.13;;;9.52;95.38
59106;BME280;44891;50.204;8.132;2022-11-04T17:50:49;97574.63;;;9.48;97.88
59106;BME280;44891;50.204;8.132;2022-11-04T17:54:51;97583.97;;;9.39;99.80
59106;BME280;44891;50.204;8.132;2022-11-04T17:58:53;97586.44;;;9.50;99.88
59106;BME280;44891;50.204;8.132;2022-11-04T18:02:55;97606.25;;;9.41;99.88
59106;BME280;44891;50.204;8.132;2022-11-04T18:06:58;97604.69;;;9.40;100.00
59106;BME280;44891;50.204;8.132;2022-11-04T18:11:02;97603.03;;;9.34;100.00
59106;BME280;44891;50.204;8.132;2022-11-04T18:15:05;97608.22;;;9.51;100.00
59106;BME280;44891;50.204;8.132;2022-11-04T18:19:07;97613.88;;;9.43;100.00
59106;BME280;44891;50.204;8.132;2022-11-04T18:23:10;97620.88;;;9.37;100.00
59106;BME280;44891;50.204;8.132;2022-11-04T18:27:13;97635.25;;;9.35;100.00
59106;BME280;44891;50.204;8.132;2022-11-04T18:31:17;97633.56;;;9.23;100.00
59106;BME280;44891;50.204;8.132;2022-11-04T18:35:21;97645.28;;;9.38;100.00
59106;BME280;44891;50.204;8.132;2022-11-04T18:39:24;97649.09;;;9.52;100.00
59106;BME280;44891;50.204;8.132;2022-11-04T18:43:26;97663.06;;;9.58;100.00
59106;BME280;44891;50.204;8.132;2022-11-04T18:47:28;97661.09;;;9.48;100.00
59106;BME280;44891;50.204;8.132;2022-11-04T18:51:29;97668.44;;;9.46;100.00
59106;BME280;44891;50.204;8.132;2022-11-04T18:55:33;97667.75;;;9.56;100.00
59106;BME280;44891;50.204;8.132;2022-11-04T18:59:34;97673.56;;;9.58;100.00
59106;BME280;44891;50.204;8.132;2022-11-04T19:03:37;97677.94;;;9.52;100.00
59106;BME280;44891;50.204;8.132;2022-11-04T19:07:39;97686.81;;;9.29;100.00
59106;BME280;44891;50.204;8.132;2022-11-04T19:11:42;97683.53;;;9.39;100.00
59106;BME280;44891;50.204;8.132;2022-11-04T19:15:44;97678.66;;;9.47;100.00
59106;BME280;44891;50.204;8.132;2022-11-04T19:19:46;97689.22;;;9.52;100.00
59106;BME280;44891;50.204;8.132;2022-11-04T19:23:48;97696.56;;;9.56;100.00
59106;BME280;44891;50.204;8.132;2022-11-04T19:27:52;97704.50;;;9.61;100.00
59106;BME280;44891;50.204;8.132;2022-11-04T19:31:54;97712.63;;;9.59;100.00
59106;BME280;44891;50.204;8.132;2022-11-04T19:35:56;97715.19;;;9.54;100.00
59106;BME280;44891;50.204;8.132;2022-11-04T19:39:58;97719.63;;;9.32;100.00
59106;BME280;44891;50.204;8.132;2022-11-04T19:44:02;97729.59;;;9.35;100.00
59106;BME280;44891;50.204;8.132;2022-11-04T19:48:05;97736.75;;;9.22;100.00
59106;BME280;44891;50.204;8.132;2022-11-04T19:52:07;97742.31;;;9.26;100.00
59106;BME280;44891;50.204;8.132;2022-11-04T19:56:11;97750.94;;;9.05;100.00
59106;BME280;44891;50.204;8.132;2022-11-04T20:00:15;97749.88;;;9.22;100.00
59106;BME280;44891;50.204;8.132;2022-11-04T20:04:17;97752.16;;;9.36;100.00
59106;BME280;44891;50.204;8.132;2022-11-04T20:08:18;97751.72;;;9.44;100.00
59106;BME280;44891;50.204;8.132;2022-11-04T20:12:20;97759.75;;;9.37;100.00
59106;BME280;44891;50.204;8.132;2022-11-04T20:16:41;97764.94;;;9.32;100.00
59106;BME280;44891;50.204;8.132;2022-11-04T20:20:43;97763.59;;;9.30;100.00
59106;BME280;44891;50.204;8.132;2022-11-04T20:24:44;97772.03;;;9.32;100.00
59106;BME280;44891;50.204;8.132;2022-11-04T20:28:46;97765.50;;;9.17;100.00
59106;BME280;44891;50.204;8.132;2022-11-04T20:32:50;97785.75;;;9.22;100.00
59106;BME280;44891;50.204;8.132;2022-11-04T20:36:52;97786.38;;;9.29;100.00
59106;BME280;44891;50.204;8.132;2022-11-04T20:40:53;97789.31;;;9.16;100.00
59106;BME280;44891;50.204;8.132;2022-11-04T20:44:55;97809.03;;;9.18;100.00
59106;BME280;44891;50.204;8.132;2022-11-04T20:48:59;97813.06;;;9.26;100.00
59106;BME280;44891;50.204;8.132;2022-11-04T20:53:02;97803.13;;;9.28;100.00
59106;BME280;44891;50.204;8.132;2022-11-04T20:57:04;97803.31;;;9.38;100.00
59106;BME280;44891;50.204;8.132;2022-11-04T21:01:06;97808.91;;;9.30;100.00
59106;BME280;44891;50.204;8.132;2022-11-04T21:05:10;97817.81;;;9.29;100.00
59106;BME280;44891;50.204;8.132;2022-11-04T21:09:13;97818.84;;;9.28;100.00
59106;BME280;44891;50.204;8.132;2022-11-04T21:13:15;97822.34;;;9.34;100.00
59106;BME280;44891;50.204;8.132;2022-11-04T21:17:17;97837.53;;;9.32;100.00
59106;BME280;44891;50.204;8.132;2022-11-04T21:21:20;97846.00;;;9.22;100.00
59106;BME280;44891;50.204;8.132;2022-11-04T21:25:22;97851.16;;;9.17;100.00
59106;BME280;44891;50.204;8.132;2022-11-04T21:29:24;97851.16;;;9.17;100.00
59106;BME280;44891;50.204;8.132;2022-11-04T21:33:26;97844.09;;;9.17;100.00
59106;BME280;44891;50.204;8.132;2022-11-04T21:37:29;97849.28;;;9.12;100.00
59106;BME280;44891;50.204;8.132;2022-11-04T21:41:31;97862.75;;;9.21;100.00
59106;BME280;44891;50.204;8.132;2022-11-04T21:45:36;97864.91;;;9.24;100.00
59106;BME280;44891;50.204;8.132;2022-11-04T21:49:38;97865.13;;;9.06;100.00
59106;BME280;44891;50.204;8.132;2022-11-04T21:53:41;97866.78;;;8.95;100.00